Magnolia, KY (42757)

4:19 AM EST on December 27, 2014 (GMT -0500)
Rex KY in Hart County | Change Station
CLOSE
Current Station
Personal Weather Station
Location: Hardyville, KY
Elevation: 721 ft
Nearby Weather Stations

Elev 721 ft 37.23 °N, 85.77 °W | Updated 11 seconds ago

Overcast
Overcast
45.4 °F
Feels Like 45 °F
N
0.0
Wind Variable Wind from SE
Gusts 0.0 mph

Today
High -- | Low -- °F
--% Chance of Precip.
Yesterday
High -- | Low -- °F
Precip. -- in
7:56 AM 5:32 PM
Waxing Crescent, 34% visible
Pressure 30.21 in
Visibility 10.0 miles
Clouds Scattered Clouds 9500 ft
Mostly Cloudy 11000 ft
Windchill 45 °F
Dew Point 38 °F
Humidity 74%
Rainfall 0.00 in
Snow Depth Not available.
UV 0.0 out of 12
Pollen .10 out of 12
Air Quality Not available.
Flu Activity Not available.
METAR KGLW 270855Z AUTO 00000KT 10SM SCT095 BKN110 08/02 A3021 RMK AO2 T00770018

More Conditions Fewer Conditions

Pressure 30.21 in
Visibility 10.0 miles
Clouds Scattered Clouds 9500 ft
Mostly Cloudy 11000 ft
Windchill 45 °F
Dew Point 38 °F
Humidity 74%
Rainfall 0.00 in
Snow Depth Not available.
UV 0.0 out of 12
Pollen .10 out of 12
Air Quality Not available.
Flu Activity Not available.
METAR KGLW 270855Z AUTO 00000KT 10SM SCT095 BKN110 08/02 A3021 RMK AO2 T00770018

More Conditions Fewer Conditions

10-Day Weather Forecast

Almanac

Astronomy

Dec. 27, 2014 Rise Set
Actual Time
Civil Twilight
Nautical Twilight
Astronomical Twilight
Moon
Length of Visible Light
Length of Day
Tomorrow will be .
, % of the Moon is Illuminated

Today's Extremes

State Highs State Lows

Community

WunderPhotos

Upload Photos

1,780,869 photos uploaded!

WunderBlogs® & News

Nearby

Air Quality

  Air Quality AQ Index Pollutant
Not available.

Snow Depth

Station Depth Elevation

Earthquake Activity

City Distance Mag. Time & Date
Minimum magnitude displayed is 2.5.

Coastal Water Temperatures

Place Temperature

Nearby Weather Stations